Beauregard Regional Airport De Ridder US
ICAO: KDRI
IATA: DRI
Category: Medium
Scheduled Services: No

Elevation: 202 ft
TransAlt. 18000 ft.

Airport Communications:
POLK APP/DEP:123.7
AWOS 3:118.225
DE RIDDER RDO:122.2
CTAF/UNICOM:122.8

KDRI Zoom In..

Runways:

(A) RW 14 length 4220 ft width 60 ft
LOC 111.10 / hdg 130

(B) RW 18 length 5495 ft width 100 ft
LOC 111.10 / hdg 175

(C) RW 32 length 4220 ft width 60 ft
LOC 111.10 / hdg 310

(D) RW 36 length 5495 ft width 100 ft
LOC 111.10 / hdg 355

Location; KDRI
Day. 19 / Time. 03.35 Zulu
* Altimeter: 29.96
* Temperature: 28° c. 82.4°f.
* Wind from: 170° Speed 03 kn.
Dewpoint: 27° c.
Visibility: 10 Statute Miles.
Clouds: Clear (automated report).

KDRI 190335Z AUTO 17003KT 10SM CLR 28/27 A2996 RMK AO2 T02780270


Wind From 170°
Speed 03 kn.

 
 
jpsmedia.com for Web Design worldairports.se 2018   terms of use